Spokane, Washington
Current Conditions -  °F | °C
As of 12:53 PM on Friday 28 Nov 2014 (Local Time) from KSFF Reporting Station
Few Clouds Few Clouds  
Wind Chill: 55°   Ceiling: Unl
Heat Index: 55°   Visibility: 10mi
Dew Point: 37°   Wind: 26mph
Humidity: 51%   Direction: 230°SW
Pressure: 29.4"   Gusts: 37mph
Location:  47.66°N, 117.41°W
Report Text: KSFF 282053Z 23023G32KT 10SM FEW043 13/03 A2940 RMK AO2 PK WND 22034/2040 SLP952 T01280028 58029
Loading
Personal Weather Stations






























Interactive Weather Map New forecast layout! Learn more

10-Day Weather Forecast

Advertisements
Track Severe Weather on mobile